Lexington, NE

6:42 PM CDT on April 29, 2017 (GMT -0500)
Kelly

Weather History for KLXN - January, 2013

Change the Weather History Date:

Wednesday, January 23, 2013

  Actual Average Record
Temperature  
Mean Temperature 26 °F -  
Max Temperature 39 °F 36 °F 60 °F (2004)
Min Temperature 14 °F 14 °F -5 °F (2014)
Degree Days  
Heating Degree Days 38    
Moisture  
Dew Point 15 °F    
Average Humidity 70    
Maximum Humidity 88    
Minimum Humidity 46    
Precipitation  
Precipitation 0.00 in - - ()
Sea Level Pressure  
Sea Level Pressure 30.20 in    
Wind  
Wind Speed 6 mph (NNE)    
Max Wind Speed 16 mph    
Max Gust Speed 18 mph    
Visibility 10 miles    
Events      
Averages and records for this station are not official NWS values.
T = Trace of Precipitation, MM = Missing Value Source: NWS Daily Summary

Daily Weather History Graph

Daily Weather History Graph

Search for Another Location

Airport or City:

Trip Planner

Search our weather history database for the weather conditions in past years. The results will help you decide how hot, cold, wet, or windy it might be!

Date:

Astronomy

Jan. 23, 2013 Rise Set
Actual Time 7:56 AM CST 5:46 PM CST
Civil Twilight 7:26 AM CST 6:15 PM CST
Nautical Twilight 6:53 AM CST 6:48 PM CST
Astronomical Twilight 6:21 AM CST 7:21 PM CST
Moon 2:57 PM CST (1/23) 5:09 AM CST (1/23)
Length of Visible Light 10h 48m
Length of Day
9h 49m
Waxing Gibbous, 89% of the Moon is Illuminated
Jan 23
Waxing Gibbous
Jan 26
Full
Feb 3
Last Quarter
Feb 10
New
Feb 17
First Quarter

Hourly Weather History & Observations

Time (CST) Temp. Windchill Dew Point Humidity Pressure Visibility Wind Dir Wind Speed Gust Speed Precip Events Conditions
12:15 AM 16.7 °F - 13.6 °F 88% 30.14 in 10.0 mi Calm Calm - N/A   Clear
12:35 AM 16.0 °F - 12.4 °F 86% 30.13 in 10.0 mi Calm Calm - N/A   Clear
12:55 AM 14.7 °F - 11.7 °F 88% 30.13 in 10.0 mi Calm Calm - N/A   Clear
1:15 AM 14.4 °F - 11.3 °F 88% 30.12 in 10.0 mi Calm Calm - N/A   Clear
1:35 AM 14.2 °F 8.4 °F 11.1 °F 88% 30.11 in 10.0 mi NNW 3.5 mph - N/A   Clear
1:55 AM 15.1 °F 9.4 °F 12.2 °F 88% 30.11 in 10.0 mi WNW 3.5 mph - N/A   Clear
2:15 AM 15.6 °F 8.3 °F 12.4 °F 87% 30.11 in 10.0 mi West 4.6 mph - N/A   Clear
2:35 AM 16.2 °F 7.6 °F 12.7 °F 86% 30.11 in 10.0 mi West 5.8 mph - N/A   Clear
2:55 AM 15.8 °F 7.2 °F 12.6 °F 87% 30.11 in 10.0 mi WNW 5.8 mph - N/A   Clear
3:15 AM 16.2 °F 7.6 °F 12.9 °F 87% 30.11 in 10.0 mi WNW 5.8 mph - N/A   Clear
3:35 AM 15.4 °F 8.1 °F 12.2 °F 87% 30.11 in 10.0 mi WNW 4.6 mph - N/A   Clear
3:55 AM 15.4 °F 6.8 °F 12.2 °F 87% 30.10 in 10.0 mi WNW 5.8 mph - N/A   Clear
4:15 AM 15.6 °F 7.0 °F 12.2 °F 86% 30.09 in 10.0 mi West 5.8 mph - N/A   Clear
4:35 AM 14.9 °F 5.0 °F 11.8 °F 88% 30.10 in 10.0 mi West 6.9 mph - N/A   Clear
4:55 AM 15.6 °F 5.9 °F 12.2 °F 86% 30.09 in 10.0 mi West 6.9 mph - N/A   Clear
5:15 AM 14.9 °F 5.0 °F 11.8 °F 88% 30.09 in 10.0 mi West 6.9 mph - N/A   Clear
5:35 AM 15.8 °F 7.2 °F 12.4 °F 86% 30.08 in 10.0 mi NW 5.8 mph - N/A   Clear
5:55 AM 16.7 °F 11.2 °F 13.1 °F 86% 30.09 in 10.0 mi WNW 3.5 mph - N/A   Clear
6:15 AM 16.3 °F 5.7 °F 12.7 °F 86% 30.10 in 10.0 mi WNW 8.1 mph - N/A   Clear
6:35 AM 17.8 °F 7.5 °F 14.4 °F 86% 30.10 in 10.0 mi NW 8.1 mph - N/A   Clear
6:55 AM 17.6 °F 9.3 °F 14.2 °F 86% 30.10 in 10.0 mi WNW 5.8 mph - N/A   Clear
7:15 AM 17.2 °F 6.8 °F 14.0 °F 87% 30.11 in 10.0 mi WNW 8.1 mph - N/A   Clear
7:35 AM 17.6 °F 10.7 °F 14.4 °F 87% 30.12 in 10.0 mi NW 4.6 mph - N/A   Clear
7:55 AM 16.5 °F - 13.3 °F 87% 30.13 in 10.0 mi Calm Calm - N/A   Clear
8:15 AM 16.7 °F - 13.6 °F 88% 30.13 in 10.0 mi Calm Calm - N/A   Clear
8:35 AM 16.7 °F - 13.5 °F 87% 30.13 in 10.0 mi Calm Calm - N/A   Clear
8:55 AM 18.3 °F - 15.1 °F 87% 30.14 in 10.0 mi Calm Calm - N/A   Clear
9:15 AM 20.5 °F - 16.9 °F 86% 30.15 in 7.0 mi Calm Calm - N/A   Clear
9:35 AM 22.6 °F - 19.0 °F 86% 30.16 in 10.0 mi Calm Calm - N/A   Clear
9:55 AM 27.0 °F - 21.2 °F 79% 30.17 in 10.0 mi Calm Calm - N/A   Clear
10:15 AM 28.9 °F 25.2 °F 21.4 °F 73% 30.19 in 10.0 mi NE 3.5 mph - N/A   Clear
10:35 AM 30.4 °F 23.6 °F 22.1 °F 71% 30.19 in 10.0 mi NE 6.9 mph - N/A   Clear
10:55 AM 32.4 °F 24.6 °F 22.3 °F 66% 30.20 in 10.0 mi NE 9.2 mph - N/A   Clear
11:15 AM 34.3 °F 27.0 °F 22.1 °F 61% 30.21 in 10.0 mi NE 9.2 mph - N/A   Clear
11:35 AM 35.6 °F 28.6 °F 21.6 °F 57% 30.20 in 10.0 mi NE 9.2 mph - N/A   Clear
11:55 AM 36.5 °F 29.2 °F 21.6 °F 55% 30.20 in 10.0 mi NE 10.4 mph - N/A   Clear
12:15 PM 37.6 °F 30.0 °F 21.2 °F 52% 30.20 in 10.0 mi ENE 11.5 mph - N/A   Clear
12:35 PM 38.5 °F 31.6 °F 20.8 °F 49% 30.20 in 10.0 mi NE 10.4 mph - N/A   Clear
12:55 PM 39.2 °F 33.0 °F 21.0 °F 48% 30.19 in 10.0 mi NE 9.2 mph - N/A   Clear
1:15 PM 39.4 °F 31.4 °F 19.9 °F 46% 30.19 in 10.0 mi NE 13.8 mph - N/A   Clear
1:35 PM 39.2 °F 31.6 °F 20.1 °F 46% 30.18 in 10.0 mi NE 12.7 mph - N/A   Clear
1:55 PM 39.2 °F 31.6 °F 20.3 °F 47% 30.18 in 10.0 mi NE 12.7 mph - N/A   Clear
2:15 PM 38.1 °F 29.1 °F 19.8 °F 48% 30.19 in 10.0 mi NE 16.1 mph - N/A   Clear
2:35 PM 37.2 °F 28.3 °F 19.8 °F 49% 30.20 in 10.0 mi NE 15.0 mph - N/A   Clear
2:55 PM 36.1 °F 26.9 °F 19.9 °F 52% 30.21 in 10.0 mi NE 15.0 mph - N/A   Clear
3:15 PM 37.2 °F 28.7 °F 19.9 °F 50% 30.23 in 10.0 mi NE 13.8 mph - N/A   Clear
3:35 PM 36.5 °F 27.8 °F 19.2 °F 50% 30.24 in 10.0 mi NNE 13.8 mph - N/A   Clear
3:55 PM 36.0 °F 28.0 °F 19.2 °F 51% 30.23 in 10.0 mi NE 11.5 mph - N/A   Clear
4:15 PM 35.2 °F 25.8 °F 18.3 °F 50% 30.24 in 10.0 mi NE 15.0 mph 18.4 mph N/A   Clear
4:35 PM 33.8 °F 24.8 °F 17.8 °F 52% 30.24 in 10.0 mi NE 12.7 mph - N/A   Clear
4:55 PM 32.4 °F 23.5 °F 17.4 °F 54% 30.25 in 10.0 mi NE 11.5 mph - N/A   Clear
5:15 PM 32.0 °F 24.2 °F 17.2 °F 55% 30.26 in 10.0 mi NE 9.2 mph - N/A   Clear
5:35 PM 31.1 °F 22.4 °F 16.7 °F 55% 30.27 in 10.0 mi NE 10.4 mph - N/A   Clear
5:55 PM 29.8 °F 19.3 °F 16.2 °F 57% 30.28 in 10.0 mi NNE 13.8 mph - N/A   Clear
6:15 PM 28.6 °F 18.2 °F 15.1 °F 57% 30.28 in 10.0 mi NE 12.7 mph - N/A   Clear
6:35 PM 27.5 °F 18.6 °F 14.7 °F 59% 30.29 in 10.0 mi NE 9.2 mph - N/A   Clear
6:55 PM 27.1 °F 17.5 °F 14.0 °F 58% 30.31 in 10.0 mi ENE 10.4 mph - N/A   Clear
7:15 PM 25.7 °F 15.1 °F 12.9 °F 58% 30.32 in 10.0 mi NE 11.5 mph - N/A   Clear
7:35 PM 24.8 °F 14.0 °F 12.6 °F 60% 30.31 in 10.0 mi ENE 11.5 mph - N/A   Clear
7:55 PM 23.9 °F 15.0 °F 12.6 °F 62% 30.34 in 10.0 mi ENE 8.1 mph - N/A   Clear
8:15 PM 23.0 °F 11.7 °F 12.2 °F 63% 30.33 in 10.0 mi ENE 11.5 mph - N/A   Clear
8:35 PM 22.1 °F 10.6 °F 12.0 °F 65% 30.33 in 10.0 mi ENE 11.5 mph - N/A   Clear
9:15 PM 21.0 °F 8.6 °F 10.9 °F 65% 30.35 in 10.0 mi ENE 12.7 mph - N/A   Clear
9:35 PM 20.3 °F 9.0 °F 10.4 °F 66% 30.36 in 10.0 mi ENE 10.4 mph - N/A   Clear
9:55 PM 19.8 °F 10.8 °F 10.4 °F 67% 30.36 in 10.0 mi ENE 6.9 mph - N/A   Clear
10:15 PM 19.2 °F 7.7 °F 9.3 °F 65% 30.37 in 10.0 mi ENE 10.4 mph - N/A   Clear
10:35 PM 18.5 °F 6.8 °F 9.3 °F 67% 30.37 in 10.0 mi ENE 10.4 mph - N/A   Clear
10:55 PM 18.1 °F 7.1 °F 9.1 °F 68% 30.37 in 10.0 mi ENE 9.2 mph - N/A   Clear
11:15 PM 17.2 °F 6.0 °F 9.1 °F 71% 30.37 in 10.0 mi ENE 9.2 mph - N/A   Clear
11:55 PM 16.0 °F 6.3 °F 9.5 °F 76% 30.39 in 10.0 mi ENE 6.9 mph - N/A   Clear